Tropical Cyclones
[Index]
Main Index Home Page Stock Weather Photos Extreme Storms Discussion Storm News and Storm Chasing Reports Tropical Cyclones / Hurricanes / Typhoons Weather Data and Links Wild Fires / Bushfires Weather Observation Techniques Weather Picture Catalogue Tornado Pictures and Reports Stock Video Footage and DVDs for sale
Season 2013-2014 Tropical Cyclone BEJISA Track Map
Season 2013-2014 Summaries (Operational Data): [AU] [SIO] [SPAC] [SH]
<<- Previous TC | 2013-2014 Season | Next TC ->>

click for intensity scale information  Lat/long Grid: Show Hide

 Date Labels: Show Hide

Operational Tropical Cyclone Data : JTWC Advisories

Name: BEJISA
Number: 1406

26 Dec 2013 18:00 UTC to 07 Jan 2014 00:00 UTC

    date/time    lat    long     hPa   cat  kts
2013-12-26 18   11.2    51.4    1010         15          
2013-12-27 00   11.2    51.2                 15          
2013-12-27 06    9.2    52.8                 15          
2013-12-27 12    9.2    52.5    1010         15          
2013-12-27 18    9.2    52.2    1010         15          
2013-12-28 00    9.1    51.9    1010         15          
2013-12-28 06    9.2    51.7    1010         15          
2013-12-28 12    9.4    51.6    1004         25          
2013-12-28 18    9.7    51.7    1004         25          
2013-12-29 00   10.0    52.2    1000         30          
2013-12-29 06   10.2    52.5     996    1    35          
2013-12-29 12   10.3    52.6     996    1    35          
2013-12-29 18   10.4    52.7     993    1    40          
2013-12-30 00   10.6    52.7     989    1    45          
2013-12-30 06   11.2    52.9     978    2    60          
2013-12-30 12   11.8    52.9     967    3    75          
2013-12-30 18   12.3    52.9     956    4    90          
2013-12-31 00   12.7    53.0            4   105          
2013-12-31 06   13.3    53.0            4   105          
2013-12-31 12   14.2    53.4            4   105          
2013-12-31 18   15.2    53.5     952    4    95          
2014-01-01 00   16.1    53.4            3    85          
2014-01-01 05   17.5    53.7     952    4    95          
2014-01-01 06   17.1    53.3     956    4    90          
2014-01-01 12   18.1    53.3     952    4    95          
2014-01-01 18   18.9    53.6     944    4   105          
2014-01-02 00   19.8    54.0     944    4   105          
2014-01-02 06   20.4    54.3     941    5   110          
2014-01-02 12   21.3    54.8     944    4   105          
2014-01-02 18   21.9    55.2     956    4    90          
2014-01-03 00   22.4    55.5     956    4    90          
2014-01-03 06   23.1    55.9     967    3    75          
2014-01-03 12   23.6    55.5     970    3    70          
2014-01-03 18   24.1    55.1     978    2    60          
2014-01-04 00   24.5    54.7     982    2    55          
2014-01-04 06   25.1    54.1     989    1    45          
2014-01-04 12   25.9    53.1     993    1    40          
2014-01-04 18   26.5    52.1     989    1    45          
2014-01-05 00   27.3    50.7     993    1    40          
2014-01-05 06   28.9    49.2     993    1    40          
2014-01-05 12   30.7    47.3     993    1    40          
2014-01-05 18   32.3    45.3     993    1    40          
2014-01-06 00   34.0    43.7     993    1    40          
2014-01-06 06   35.6    42.8     993    1    40          
2014-01-06 12   36.8    42.6     993    1    40          
2014-01-06 18   37.6    43.1     996    1    35          
2014-01-07 00   38.8    44.6     996    1    35          
Winds are 10-min average.

Tropical cyclone tracks developed by Michael Bath using operational warnings and advisories and Google Maps.


[Australian Severe Weather index] [Copyright Notice] [Email Contacts] [Search This Site] [Privacy Policy]
Document: tropical_cyclone_bejisa.htm Updated: 2 May 2017